sensor_id;sensor_type;location;lat;lon;timestamp;P1;P2;P0
45112;PMS5003;30873;53.908;27.576;2023-05-13T11:51:49;14;13;10.5
45112;PMS5003;30873;53.908;27.576;2023-05-13T11:56:53;12.1;11;8.5
45112;PMS5003;30873;53.908;27.576;2023-05-13T12:01:29;19.6;18.1;13.4
45112;PMS5003;30873;53.908;27.576;2023-05-13T12:06:17;10.3;10.3;7.8
45112;PMS5003;30873;53.908;27.576;2023-05-13T12:11:50;14.3;13.3;10.6
45112;PMS5003;30873;53.908;27.576;2023-05-13T12:16:39;11;9.8;7.8
45112;PMS5003;30873;53.908;27.576;2023-05-13T12:21:37;11;10;7.7
45112;PMS5003;30873;53.908;27.576;2023-05-13T12:27:04;21.7;19.7;14
45112;PMS5003;30873;53.908;27.576;2023-05-13T12:31:27;11;10;7.8
45112;PMS5003;30873;53.908;27.576;2023-05-13T12:36:53;9.5;9.5;7.5
45112;PMS5003;30873;53.908;27.576;2023-05-13T12:41:50;10.3;9.7;7.7
45112;PMS5003;30873;53.908;27.576;2023-05-13T12:46:21;9.9;9.4;7.3
45112;PMS5003;30873;53.908;27.576;2023-05-13T12:51:53;10.7;9.8;7.6
45112;PMS5003;30873;53.908;27.576;2023-05-13T12:56:39;10.1;9.8;7.6
45112;PMS5003;30873;53.908;27.576;2023-05-13T13:02:03;12.4;12.1;10.3
45112;PMS5003;30873;53.908;27.576;2023-05-13T13:06:49;18.9;18.8;16.1
45112;PMS5003;30873;53.908;27.576;2023-05-13T13:12:03;9.6;8.8;6.8
45112;PMS5003;30873;53.908;27.576;2023-05-13T13:16:49;10.6;10.1;7.8
45112;PMS5003;30873;53.908;27.576;2023-05-13T13:22:01;22.4;20.5;16.2
45112;PMS5003;30873;53.908;27.576;2023-05-13T13:26:39;10.6;10.2;7.7
45112;PMS5003;30873;53.908;27.576;2023-05-13T13:31:49;11.1;10.9;8.6
45112;PMS5003;30873;53.908;27.576;2023-05-13T13:36:39;11.7;11;8.6
45112;PMS5003;30873;53.908;27.576;2023-05-13T13:41:39;13.6;12.9;9.8
45112;PMS5003;30873;53.908;27.576;2023-05-13T13:46:49;10.8;10.5;7.9
45112;PMS5003;30873;53.908;27.576;2023-05-13T13:51:50;16.3;15.7;12.6
45112;PMS5003;30873;53.908;27.576;2023-05-13T13:56:49;11.9;11.5;8.8
45112;PMS5003;30873;53.908;27.576;2023-05-13T14:02:03;14;13.1;9.5
45112;PMS5003;30873;53.908;27.576;2023-05-13T14:07:03;17.3;16.4;12.8
45112;PMS5003;30873;53.908;27.576;2023-05-13T14:11:27;10.6;9.9;7.7
45112;PMS5003;30873;53.908;27.576;2023-05-13T14:16:49;11.7;11;9.2
45112;PMS5003;30873;53.908;27.576;2023-05-13T14:21:53;12.1;11.6;7.7
45112;PMS5003;30873;53.908;27.576;2023-05-13T14:26:28;11;10.7;8.4
45112;PMS5003;30873;53.908;27.576;2023-05-13T14:31:39;11.2;10.4;8.3
45112;PMS5003;30873;53.908;27.576;2023-05-13T14:36:49;11.7;10.9;8.6
45112;PMS5003;30873;53.908;27.576;2023-05-13T14:42:04;11.6;11.2;8.5
45112;PMS5003;30873;53.908;27.576;2023-05-13T14:47:03;11.5;11.1;8.4
45112;PMS5003;30873;53.908;27.576;2023-05-13T14:51:37;15.7;14.7;10.9
45112;PMS5003;30873;53.908;27.576;2023-05-13T14:57:04;15.4;14.8;12.3
45112;PMS5003;30873;53.908;27.576;2023-05-13T15:01:53;11.1;11.1;8.6
45112;PMS5003;30873;53.908;27.576;2023-05-13T15:06:37;11.7;11.3;8.6
45112;PMS5003;30873;53.908;27.576;2023-05-13T15:11:35;13.4;12.6;9.4
45112;PMS5003;30873;53.908;27.576;2023-05-13T15:16:49;12.7;11.9;8.9
45112;PMS5003;30873;53.908;27.576;2023-05-13T15:21:27;27.6;26.2;20.2
45112;PMS5003;30873;53.908;27.576;2023-05-13T15:26:49;35.3;32.4;24.7
45112;PMS5003;30873;53.908;27.576;2023-05-13T15:32:05;46;39.4;30.3
45112;PMS5003;30873;53.908;27.576;2023-05-13T15:36:17;14.7;13.9;10.4
45112;PMS5003;30873;53.908;27.576;2023-05-13T15:42:03;18.3;17.8;13.2
45112;PMS5003;30873;53.908;27.576;2023-05-13T15:46:39;15.4;13.8;10.1
45112;PMS5003;30873;53.908;27.576;2023-05-13T15:51:35;15.9;15.1;10.8
45112;PMS5003;30873;53.908;27.576;2023-05-13T15:56:53;17.1;16.2;12.7
45112;PMS5003;30873;53.908;27.576;2023-05-13T16:01:37;16.1;14.9;11.3
45112;PMS5003;30873;53.908;27.576;2023-05-13T16:06:17;12.9;12.4;9.6
45112;PMS5003;30873;53.908;27.576;2023-05-13T16:11:47;12.1;11.5;8.5
45112;PMS5003;30873;53.908;27.576;2023-05-13T16:17:03;13.1;12.3;9.5
45112;PMS5003;30873;53.908;27.576;2023-05-13T16:21:31;12.8;12.1;8.7
45112;PMS5003;30873;53.908;27.576;2023-05-13T16:26:39;13.7;12.7;9.7
45112;PMS5003;30873;53.908;27.576;2023-05-13T16:31:39;18.3;17.1;13.2
45112;PMS5003;30873;53.908;27.576;2023-05-13T16:36:50;12.8;12.3;9.4
45112;PMS5003;30873;53.908;27.576;2023-05-13T16:41:27;12.8;11.9;8.2
45112;PMS5003;30873;53.908;27.576;2023-05-13T16:46:29;12.2;11;8.5
45112;PMS5003;30873;53.908;27.576;2023-05-13T16:51:49;12.6;11.6;8.7
45112;PMS5003;30873;53.908;27.576;2023-05-13T16:56:39;14.2;13;9.5
45112;PMS5003;30873;53.908;27.576;2023-05-13T17:01:17;13;12.5;9.6
45112;PMS5003;30873;53.908;27.576;2023-05-13T17:07:04;15;14.5;11
45112;PMS5003;30873;53.908;27.576;2023-05-13T17:12:04;13.6;12.9;9.8
45112;PMS5003;30873;53.908;27.576;2023-05-13T17:16:17;37.3;33.9;27.8
45112;PMS5003;30873;53.908;27.576;2023-05-13T17:21:49;21.2;18.5;14.9
45112;PMS5003;30873;53.908;27.576;2023-05-13T17:26:53;15.7;13.9;9.9
45112;PMS5003;30873;53.908;27.576;2023-05-13T17:31:18;13.5;13;9.4
45112;PMS5003;30873;53.908;27.576;2023-05-13T17:36:39;16.3;14.4;10.4
45112;PMS5003;30873;53.908;27.576;2023-05-13T17:41:49;15.8;14.9;10.5
45112;PMS5003;30873;53.908;27.576;2023-05-13T17:47:03;15.2;14;10.1
45112;PMS5003;30873;53.908;27.576;2023-05-13T17:52:04;17.1;16.1;10.9
45112;PMS5003;30873;53.908;27.576;2023-05-13T17:56:39;16;15;10.2
45112;PMS5003;30873;53.908;27.576;2023-05-13T18:02:03;18.6;17.3;12.2
45112;PMS5003;30873;53.908;27.576;2023-05-13T18:06:53;18.1;17.2;12.6
45112;PMS5003;30873;53.908;27.576;2023-05-13T18:11:17;22;21.2;15.4
45112;PMS5003;30873;53.908;27.576;2023-05-13T18:16:33;20.3;19;13.9
45112;PMS5003;30873;53.908;27.576;2023-05-13T18:21:29;35.7;30.7;21.3
45112;PMS5003;30873;53.908;27.576;2023-05-13T18:26:17;20.8;18.9;13.8
45112;PMS5003;30873;53.908;27.576;2023-05-13T18:31:47;23.1;20.6;15
45112;PMS5003;30873;53.908;27.576;2023-05-13T18:37:04;23.9;21.1;15.3
45112;PMS5003;30873;53.908;27.576;2023-05-13T18:41:17;22.4;20.6;15.3
45112;PMS5003;30873;53.908;27.576;2023-05-13T18:46:49;23.1;22.4;16.3
45112;PMS5003;30873;53.908;27.576;2023-05-13T18:51:40;35.5;30.6;20.9
45112;PMS5003;30873;53.908;27.576;2023-05-13T18:56:17;24.1;22.3;16.8
45112;PMS5003;30873;53.908;27.576;2023-05-13T19:01:53;25.3;22.5;17.3
45112;PMS5003;30873;53.908;27.576;2023-05-13T19:06:40;30.7;27.6;20.6
45112;PMS5003;30873;53.908;27.576;2023-05-13T19:11:28;42.9;37.2;27.4
45112;PMS5003;30873;53.908;27.576;2023-05-13T19:16:48;43.2;38.5;28.7
45112;PMS5003;30873;53.908;27.576;2023-05-13T19:22:04;44.9;39.4;29.1
45112;PMS5003;30873;53.908;27.576;2023-05-13T19:26:36;50.7;43.2;32.4
45112;PMS5003;30873;53.908;27.576;2023-05-13T19:31:39;36.1;33.1;24.1
45112;PMS5003;30873;53.908;27.576;2023-05-13T19:37:02;26.1;25.1;18
45112;PMS5003;30873;53.908;27.576;2023-05-13T19:42:04;31.1;27.3;19.1
45112;PMS5003;30873;53.908;27.576;2023-05-13T19:46:40;29.2;26.4;19.1
45112;PMS5003;30873;53.908;27.576;2023-05-13T19:51:25;26.7;24.6;18.2
45112;PMS5003;30873;53.908;27.576;2023-05-13T19:57:04;27.7;25.7;18.4
45112;PMS5003;30873;53.908;27.576;2023-05-13T20:01:53;26.7;24.5;17.6
45112;PMS5003;30873;53.908;27.576;2023-05-13T20:06:18;26;24.3;17.3
45112;PMS5003;30873;53.908;27.576;2023-05-13T20:11:36;28.7;26;18.6
45112;PMS5003;30873;53.908;27.576;2023-05-13T20:16:54;37;32.5;23.2
45112;PMS5003;30873;53.908;27.576;2023-05-13T20:21:28;28.7;26.2;18.3
45112;PMS5003;30873;53.908;27.576;2023-05-13T20:26:32;29.2;27.5;19.5
45112;PMS5003;30873;53.908;27.576;2023-05-13T20:32:04;29.9;27.9;19.8
45112;PMS5003;30873;53.908;27.576;2023-05-13T20:36:32;31.4;29;20.4
45112;PMS5003;30873;53.908;27.576;2023-05-13T20:41:28;31.9;29.7;20.9
45112;PMS5003;30873;53.908;27.576;2023-05-13T20:46:50;32;30.1;22.1
45112;PMS5003;30873;53.908;27.576;2023-05-13T20:52:04;33.1;29.6;20.6
45112;PMS5003;30873;53.908;27.576;2023-05-13T20:57:06;35.8;32.3;22.3
45112;PMS5003;30873;53.908;27.576;2023-05-13T21:02:06;36.5;32.6;22.3
45112;PMS5003;30873;53.908;27.576;2023-05-13T21:07:06;37.1;33;23.2
45112;PMS5003;30873;53.908;27.576;2023-05-13T21:11:56;37.9;34;24
45112;PMS5003;30873;53.908;27.576;2023-05-13T21:16:38;38.7;35;23.1
45112;PMS5003;30873;53.908;27.576;2023-05-13T21:21:36;43.2;37.8;27
45112;PMS5003;30873;53.908;27.576;2023-05-13T21:26:52;44.1;38.3;26.9
45112;PMS5003;30873;53.908;27.576;2023-05-13T21:31:18;40.4;35;24.5
45112;PMS5003;30873;53.908;27.576;2023-05-13T21:36:50;51.9;43;30.3
45112;PMS5003;30873;53.908;27.576;2023-05-13T21:41:54;47.9;40.8;29
45112;PMS5003;30873;53.908;27.576;2023-05-13T21:46:32;43.1;37.9;25.5
45112;PMS5003;30873;53.908;27.576;2023-05-13T21:52:06;42.7;36.2;24.9
45112;PMS5003;30873;53.908;27.576;2023-05-13T21:56:38;46.5;38.7;25.9
45112;PMS5003;30873;53.908;27.576;2023-05-13T22:01:28;41.2;36.9;25.5
45112;PMS5003;30873;53.908;27.576;2023-05-13T22:07:06;42.7;36.3;25.1
45112;PMS5003;30873;53.908;27.576;2023-05-13T22:11:40;44.9;38.8;25.9
45112;PMS5003;30873;53.908;27.576;2023-05-13T22:16:30;40.6;36.2;25
45112;PMS5003;30873;53.908;27.576;2023-05-13T22:21:52;43.2;37.1;25.2
45112;PMS5003;30873;53.908;27.576;2023-05-13T22:27:04;40.9;36.4;25.4
45112;PMS5003;30873;53.908;27.576;2023-05-13T22:31:18;42.9;36.7;25.6
45112;PMS5003;30873;53.908;27.576;2023-05-13T22:36:42;41;37;24.3
45112;PMS5003;30873;53.908;27.576;2023-05-13T22:42:04;44;37.9;26.4
45112;PMS5003;30873;53.908;27.576;2023-05-13T22:47:04;42.4;36.9;25.1
45112;PMS5003;30873;53.908;27.576;2023-05-13T22:51:26;42.7;36.9;25.1
45112;PMS5003;30873;53.908;27.576;2023-05-13T22:56:50;43;37.5;25.3
45112;PMS5003;30873;53.908;27.576;2023-05-13T23:02:06;43.1;37.3;24.8
45112;PMS5003;30873;53.908;27.576;2023-05-13T23:06:56;41.2;36.4;24.1
45112;PMS5003;30873;53.908;27.576;2023-05-13T23:11:18;39;34.5;24.3
45112;PMS5003;30873;53.908;27.576;2023-05-13T23:16:36;41;36.9;24.5
45112;PMS5003;30873;53.908;27.576;2023-05-13T23:22:06;42;36.8;24.9
45112;PMS5003;30873;53.908;27.576;2023-05-13T23:26:18;40;36.3;24
45112;PMS5003;30873;53.908;27.576;2023-05-13T23:31:28;40.3;35.7;24
45112;PMS5003;30873;53.908;27.576;2023-05-13T23:37:04;40.5;36;24.5
45112;PMS5003;30873;53.908;27.576;2023-05-13T23:41:32;40.7;35.3;24.2
45112;PMS5003;30873;53.908;27.576;2023-05-13T23:46:42;40.2;36.7;25
45112;PMS5003;30873;53.908;27.576;2023-05-13T23:51:48;42.6;36.5;24.5
45112;PMS5003;30873;53.908;27.576;2023-05-13T23:56:36;43;37;25
